Time;durP1;ratioP1;P1;durP2;ratioP2;P2;SDS_P1;SDS_P2;PMS_P1;PMS_P2;Temp;Humidity;BMP_temperature;BMP_pressure;BME280_temperature;BME280_humidity;BME280_pressure;Samples;Min_cycle;Max_cycle;Signal;HPM_P1;HPM_P2
2024/04/17 00:01:00;;;;;;;;;;;;;;;;;;5488626;25;4515;-68
2024/04/17 00:03:26;;;;;;;;;;;;;;;;;;5512012;26;5080;-68
2024/04/17 00:05:51;;;;;;;;;;;;;;;;;;5503624;26;5104;-67
2024/04/17 00:08:16;;;;;;;;;;;;;;;;;;5507272;26;1273;-67
2024/04/17 00:10:42;;;;;;;;;;;;;;;;;;5494218;26;5144;-68
2024/04/17 00:13:07;;;;;;;;;;;;;;;;;;5470374;26;5115;-68
2024/04/17 00:15:33;;;;;;;;;;;;;;;;;;5499619;26;5111;-67
2024/04/17 00:17:58;;;;;;;;;;;;;;;;;;5499902;26;5057;-67
2024/04/17 00:20:23;;;;;;;;;;;;;;;;;;5507214;26;1375;-67
2024/04/17 00:22:49;;;;;;;;;;;;;;;;;;5514706;25;4592;-70
2024/04/17 00:25:14;;;;;;;;;;;;;;;;;;5496030;26;5331;-67
2024/04/17 00:27:40;;;;;;;;;;;;;;;;;;5510433;26;5383;-69
2024/04/17 00:30:05;;;;;;;;;;;;;;;;;;5469110;26;5143;-67
2024/04/17 00:32:31;;;;;;;;;;;;;;;;;;5519804;26;1237;-67
2024/04/17 00:34:57;;;;;;;;;;;;;;;;;;5515095;26;5136;-68
2024/04/17 00:37:22;;;;;;;;;;;;;;;;;;5510763;26;5438;-67
2024/04/17 00:39:47;;;;;;;;;;;;;;;;;;5507659;26;5068;-67
2024/04/17 00:42:13;;;;;;;;;;;;;;;;;;5504300;26;5080;-68
2024/04/17 00:44:38;;;;;;;;;;;;;;;;;;5508323;26;1867;-68
2024/04/17 00:47:05;;;;;;;;;;;;;;;;;;5514788;26;4518;-68
2024/04/17 00:49:31;;;;;;;;;;;;;;;;;;5517390;26;5382;-68
2024/04/17 00:51:56;;;;;;;;;;;;;;;;;;5469781;26;5929;-68
2024/04/17 00:54:22;;;;;;;;;;;;;;;;;;5516271;26;5096;-69
2024/04/17 00:56:47;;;;;;;;;;;;;;;;;;5498554;26;1515;-70
2024/04/17 00:59:12;;;;;;;;;;;;;;;;;;5477879;26;5003;-67
2024/04/17 01:01:38;;;;;;;;;;;;;;;;;;5465387;26;4738;-68
2024/04/17 01:04:03;;;;;;;;;;;;;;;;;;5516492;26;4705;-69
2024/04/17 01:06:29;;;;;;;;;;;;;;;;;;5473729;26;4955;-67
2024/04/17 01:08:54;;;;;;;;;;;;;;;;;;5504593;26;5187;-68
2024/04/17 01:11:19;;;;;;;;;;;;;;;;;;5518185;26;1314;-67
2024/04/17 01:13:44;;;;;;;;;;;;;;;;;;5506142;26;5053;-67
2024/04/17 01:16:10;;;;;;;;;;;;;;;;;;5513420;26;4519;-69
2024/04/17 01:18:36;;;;;;;;;;;;;;;;;;5510806;26;5218;-70
2024/04/17 01:21:01;;;;;;;;;;;;;;;;;;5512446;25;5062;-68
2024/04/17 01:23:27;;;;;;;;;;;;;;;;;;5465266;26;1370;-68
2024/04/17 01:25:52;;;;;;;;;;;;;;;;;;5501170;25;5026;-68
2024/04/17 01:28:17;;;;;;;;;;;;;;;;;;5508183;26;4541;-69
2024/04/17 01:30:42;;;;;;;;;;;;;;;;;;5502901;26;4668;-69
2024/04/17 01:33:08;;;;;;;;;;;;;;;;;;5502852;26;5285;-69
2024/04/17 01:35:33;;;;;;;;;;;;;;;;;;5517686;26;1250;-67
2024/04/17 01:37:58;;;;;;;;;;;;;;;;;;5507803;26;5165;-67
2024/04/17 01:40:23;;;;;;;;;;;;;;;;;;5504957;26;5066;-67
2024/04/17 01:42:48;;;;;;;;;;;;;;;;;;5502886;26;5210;-67
2024/04/17 01:45:14;;;;;;;;;;;;;;;;;;5502837;26;4604;-67
2024/04/17 01:47:39;;;;;;;;;;;;;;;;;;5500282;26;3168;-67
2024/04/17 01:50:06;;;;;;;;;;;;;;;;;;5497478;26;5235;-67
2024/04/17 01:52:31;;;;;;;;;;;;;;;;;;5477666;26;5819;-68
2024/04/17 01:54:57;;;;;;;;;;;;;;;;;;5502358;26;5103;-68
2024/04/17 01:57:22;;;;;;;;;;;;;;;;;;5506695;26;5065;-68
2024/04/17 01:59:47;;;;;;;;;;;;;;;;;;5514412;26;1131;-67
2024/04/17 02:02:12;;;;;;;;;;;;;;;;;;5507184;26;5137;-68
2024/04/17 02:04:38;;;;;;;;;;;;;;;;;;5471432;26;5203;-67
2024/04/17 02:07:03;;;;;;;;;;;;;;;;;;5506707;26;4522;-66
2024/04/17 02:09:28;;;;;;;;;;;;;;;;;;5507917;26;5179;-67
2024/04/17 02:11:53;;;;;;;;;;;;;;;;;;5518396;26;5300;-69
2024/04/17 02:14:18;;;;;;;;;;;;;;;;;;5518210;26;1275;-68
2024/04/17 02:16:44;;;;;;;;;;;;;;;;;;5513873;26;4626;-70
2024/04/17 02:19:09;;;;;;;;;;;;;;;;;;5506045;26;4647;-69
2024/04/17 02:21:34;;;;;;;;;;;;;;;;;;5504982;25;5080;-68
2024/04/17 02:23:59;;;;;;;;;;;;;;;;;;5518192;26;5224;-69
2024/04/17 02:26:25;;;;;;;;;;;;;;;;;;5515520;26;1836;-68
2024/04/17 02:28:50;;;;;;;;;;;;;;;;;;5517610;26;5090;-67
2024/04/17 02:31:15;;;;;;;;;;;;;;;;;;5507105;26;4536;-67
2024/04/17 02:33:40;;;;;;;;;;;;;;;;;;5504091;26;5047;-68
2024/04/17 02:36:06;;;;;;;;;;;;;;;;;;5505997;26;4719;-69
2024/04/17 02:38:31;;;;;;;;;;;;;;;;;;5506455;26;1362;-67
2024/04/17 02:40:56;;;;;;;;;;;;;;;;;;5454696;26;5361;-67
2024/04/17 02:43:21;;;;;;;;;;;;;;;;;;5517474;26;5140;-68
2024/04/17 02:45:47;;;;;;;;;;;;;;;;;;5505439;26;5130;-68
2024/04/17 02:48:12;;;;;;;;;;;;;;;;;;5496313;26;5085;-68
2024/04/17 02:50:38;;;;;;;;;;;;;;;;;;5505281;26;1284;-68
2024/04/17 02:53:04;;;;;;;;;;;;;;;;;;5513911;26;5082;-68
2024/04/17 02:55:29;;;;;;;;;;;;;;;;;;5509909;26;5069;-69
2024/04/17 02:57:54;;;;;;;;;;;;;;;;;;5503091;26;5135;-68
2024/04/17 03:00:20;;;;;;;;;;;;;;;;;;5506381;26;4484;-67
2024/04/17 03:02:45;;;;;;;;;;;;;;;;;;5517457;26;1274;-67
2024/04/17 03:05:10;;;;;;;;;;;;;;;;;;5503263;26;5173;-69
2024/04/17 03:07:35;;;;;;;;;;;;;;;;;;5509567;26;5085;-69
2024/04/17 03:10:00;;;;;;;;;;;;;;;;;;5513831;26;4989;-67
2024/04/17 03:12:26;;;;;;;;;;;;;;;;;;5464678;26;4551;-68
2024/04/17 03:14:51;;;;;;;;;;;;;;;;;;5476031;26;4993;-66
2024/04/17 03:17:17;;;;;;;;;;;;;;;;;;5511141;26;1444;-68
2024/04/17 03:19:42;;;;;;;;;;;;;;;;;;5520575;26;5051;-67
2024/04/17 03:22:07;;;;;;;;;;;;;;;;;;5502224;25;4542;-67
2024/04/17 03:24:33;;;;;;;;;;;;;;;;;;5504115;26;5078;-67
2024/04/17 03:26:58;;;;;;;;;;;;;;;;;;5502427;26;5190;-69
2024/04/17 03:29:23;;;;;;;;;;;;;;;;;;5516173;26;1285;-68
2024/04/17 03:31:49;;;;;;;;;;;;;;;;;;5510790;26;5071;-68
2024/04/17 03:34:15;;;;;;;;;;;;;;;;;;5505950;26;5212;-67
2024/04/17 03:36:40;;;;;;;;;;;;;;;;;;5517640;26;5200;-67
2024/04/17 03:39:05;;;;;;;;;;;;;;;;;;5519902;26;5275;-67
2024/04/17 03:41:31;;;;;;;;;;;;;;;;;;5458753;26;1535;-67
2024/04/17 03:43:56;;;;;;;;;;;;;;;;;;5519177;26;5044;-68
2024/04/17 03:46:21;;;;;;;;;;;;;;;;;;5512692;26;4568;-67
2024/04/17 03:48:47;;;;;;;;;;;;;;;;;;5520248;26;5064;-66
2024/04/17 03:51:12;;;;;;;;;;;;;;;;;;5518752;26;5047;-67
2024/04/17 03:53:38;;;;;;;;;;;;;;;;;;5511714;26;1264;-66
2024/04/17 03:56:03;;;;;;;;;;;;;;;;;;5504825;26;4557;-66
2024/04/17 03:58:29;;;;;;;;;;;;;;;;;;5510643;26;4654;-69
2024/04/17 04:00:54;;;;;;;;;;;;;;;;;;5520217;26;4550;-68
2024/04/17 04:03:19;;;;;;;;;;;;;;;;;;5467202;26;5306;-66
2024/04/17 04:05:45;;;;;;;;;;;;;;;;;;5513317;26;1818;-67
2024/04/17 04:08:10;;;;;;;;;;;;;;;;;;5509683;26;5037;-67
2024/04/17 04:10:36;;;;;;;;;;;;;;;;;;5510751;26;5187;-68
2024/04/17 04:13:01;;;;;;;;;;;;;;;;;;5500990;26;5073;-69
2024/04/17 04:15:27;;;;;;;;;;;;;;;;;;5519637;26;5087;-69
2024/04/17 04:17:52;;;;;;;;;;;;;;;;;;5519754;26;5042;-67
2024/04/17 04:20:17;;;;;;;;;;;;;;;;;;5520402;26;1387;-68
2024/04/17 04:22:43;;;;;;;;;;;;;;;;;;5513353;25;4506;-67
2024/04/17 04:25:08;;;;;;;;;;;;;;;;;;5495986;26;5058;-67
2024/04/17 04:27:33;;;;;;;;;;;;;;;;;;5509353;26;5135;-67
2024/04/17 04:29:59;;;;;;;;;;;;;;;;;;5486724;26;5091;-66
2024/04/17 04:32:24;;;;;;;;;;;;;;;;;;5518139;26;1429;-67
2024/04/17 04:34:49;;;;;;;;;;;;;;;;;;5504232;26;4518;-68
2024/04/17 04:37:15;;;;;;;;;;;;;;;;;;5509848;26;5069;-68
2024/04/17 04:39:40;;;;;;;;;;;;;;;;;;5512100;26;5098;-57
2024/04/17 04:42:07;;;;;;;;;;;;;;;;;;5493864;26;5106;-57
2024/04/17 04:44:32;;;;;;;;;;;;;;;;;;5513146;26;1837;-59
2024/04/17 04:47:01;;;;;;;;;;;;;;;;;;5485304;26;4777;-57
2024/04/17 04:49:26;;;;;;;;;;;;;;;;;;5519000;26;5064;-58
2024/04/17 04:51:51;;;;;;;;;;;;;;;;;;5505701;26;5022;-56
2024/04/17 04:54:17;;;;;;;;;;;;;;;;;;5498073;26;5140;-55
2024/04/17 04:56:43;;;;;;;;;;;;;;;;;;5507789;26;1385;-58
2024/04/17 04:59:08;;;;;;;;;;;;;;;;;;5500406;26;4764;-57
2024/04/17 05:01:33;;;;;;;;;;;;;;;;;;5499145;25;4538;-57
2024/04/17 05:03:59;;;;;;;;;;;;;;;;;;5497918;26;5134;-57
2024/04/17 05:06:24;;;;;;;;;;;;;;;;;;5495565;26;4637;-55
2024/04/17 05:08:49;;;;;;;;;;;;;;;;;;5503480;26;4659;-55
2024/04/17 05:11:15;;;;;;;;;;;;;;;;;;5513612;26;1345;-54
2024/04/17 05:13:40;;;;;;;;;;;;;;;;;;5502609;26;4558;-55
2024/04/17 05:16:06;;;;;;;;;;;;;;;;;;5507286;26;4527;-55
2024/04/17 05:18:31;;;;;;;;;;;;;;;;;;5517656;26;5052;-55
2024/04/17 05:20:56;;;;;;;;;;;;;;;;;;5499498;26;5185;-54
2024/04/17 05:23:22;;;;;;;;;;;;;;;;;;5510974;25;1907;-56
2024/04/17 05:25:47;;;;;;;;;;;;;;;;;;5507693;26;5076;-55
2024/04/17 05:28:13;;;;;;;;;;;;;;;;;;5518443;26;4490;-54
2024/04/17 05:30:39;;;;;;;;;;;;;;;;;;5517968;26;4881;-53
2024/04/17 05:33:05;;;;;;;;;;;;;;;;;;5500427;26;5094;-53
2024/04/17 05:35:30;;;;;;;;;;;;;;;;;;5500263;26;1269;-54
2024/04/17 05:37:56;;;;;;;;;;;;;;;;;;5507491;26;5109;-55
2024/04/17 05:40:21;;;;;;;;;;;;;;;;;;5518413;26;5086;-53
2024/04/17 05:42:46;;;;;;;;;;;;;;;;;;5505666;26;5065;-55
2024/04/17 05:45:12;;;;;;;;;;;;;;;;;;5518076;26;5278;-54
2024/04/17 05:47:37;;;;;;;;;;;;;;;;;;5472436;26;1384;-56
2024/04/17 05:50:03;;;;;;;;;;;;;;;;;;5516566;26;5166;-54
2024/04/17 05:52:28;;;;;;;;;;;;;;;;;;5513241;26;4647;-54
2024/04/17 05:54:53;;;;;;;;;;;;;;;;;;5508412;25;5151;-53
2024/04/17 05:57:19;;;;;;;;;;;;;;;;;;5517972;26;5056;-55
2024/04/17 05:59:44;;;;;;;;;;;;;;;;;;5518720;26;1249;-55
2024/04/17 06:02:09;;;;;;;;;;;;;;;;;;5515135;26;5173;-55
2024/04/17 06:04:36;;;;;;;;;;;;;;;;;;5504129;26;5125;-54
2024/04/17 06:07:01;;;;;;;;;;;;;;;;;;5498799;26;5291;-55
2024/04/17 06:09:26;;;;;;;;;;;;;;;;;;5493406;26;5070;-54
2024/04/17 06:11:52;;;;;;;;;;;;;;;;;;5510282;26;5104;-55
2024/04/17 06:14:17;;;;;;;;;;;;;;;;;;5491004;26;1255;-54
2024/04/17 06:16:45;;;;;;;;;;;;;;;;;;5507718;26;4818;-53
2024/04/17 06:19:14;;;;;;;;;;;;;;;;;;5499976;26;5110;-54
2024/04/17 06:21:39;;;;;;;;;;;;;;;;;;5512642;25;5237;-55
2024/04/17 06:24:04;;;;;;;;;;;;;;;;;;5517721;26;4609;-55
2024/04/17 06:26:30;;;;;;;;;;;;;;;;;;5500111;26;1832;-55
2024/04/17 06:28:56;;;;;;;;;;;;;;;;;;5514307;26;4595;-55
2024/04/17 06:31:22;;;;;;;;;;;;;;;;;;5501065;26;4542;-54
2024/04/17 06:33:47;;;;;;;;;;;;;;;;;;5510522;26;5206;-54
2024/04/17 06:36:12;;;;;;;;;;;;;;;;;;5504145;26;5158;-53
2024/04/17 06:38:38;;;;;;;;;;;;;;;;;;5518053;26;1322;-54
2024/04/17 06:41:03;;;;;;;;;;;;;;;;;;5510876;26;4467;-54
2024/04/17 06:43:29;;;;;;;;;;;;;;;;;;5504021;26;5174;-55
2024/04/17 06:45:54;;;;;;;;;;;;;;;;;;5475704;26;5138;-53
2024/04/17 06:48:20;;;;;;;;;;;;;;;;;;5510322;26;5112;-54
2024/04/17 06:50:45;;;;;;;;;;;;;;;;;;5513993;26;1243;-54
2024/04/17 06:53:11;;;;;;;;;;;;;;;;;;5516607;26;5009;-54
2024/04/17 06:55:36;;;;;;;;;;;;;;;;;;5511906;26;5254;-55
2024/04/17 06:58:02;;;;;;;;;;;;;;;;;;5496401;26;5073;-55
2024/04/17 07:00:35;;;;;;;;;;;;;;;;;;5513669;26;5179;-55
2024/04/17 07:03:00;;;;;;;;;;;;;;;;;;5508937;26;5065;-54
2024/04/17 07:05:26;;;;;;;;;;;;;;;;;;5488839;26;1868;-53
2024/04/17 07:07:51;;;;;;;;;;;;;;;;;;5500500;26;5139;-54
2024/04/17 07:10:16;;;;;;;;;;;;;;;;;;5508994;26;4569;-56
2024/04/17 07:12:42;;;;;;;;;;;;;;;;;;5505459;26;4519;-55
2024/04/17 07:15:07;;;;;;;;;;;;;;;;;;5501019;26;5097;-53
2024/04/17 07:17:32;;;;;;;;;;;;;;;;;;5504007;26;1227;-54
2024/04/17 07:19:58;;;;;;;;;;;;;;;;;;5517658;26;5085;-55
2024/04/17 07:22:24;;;;;;;;;;;;;;;;;;5511041;25;4802;-54
2024/04/17 07:24:49;;;;;;;;;;;;;;;;;;5484429;26;4674;-54
2024/04/17 07:27:14;;;;;;;;;;;;;;;;;;5513665;26;4507;-54
2024/04/17 07:29:40;;;;;;;;;;;;;;;;;;5506308;26;1318;-56
2024/04/17 07:32:05;;;;;;;;;;;;;;;;;;5520891;26;5126;-56
2024/04/17 07:34:30;;;;;;;;;;;;;;;;;;5516034;26;5059;-54
2024/04/17 07:36:56;;;;;;;;;;;;;;;;;;5517427;26;5170;-55
2024/04/17 07:39:21;;;;;;;;;;;;;;;;;;5519615;25;4993;-54
2024/04/17 07:41:46;;;;;;;;;;;;;;;;;;5515372;26;1335;-54
2024/04/17 07:44:12;;;;;;;;;;;;;;;;;;5504569;26;5320;-53
2024/04/17 07:46:37;;;;;;;;;;;;;;;;;;5510505;26;5052;-56
2024/04/17 07:49:03;;;;;;;;;;;;;;;;;;5513484;26;5066;-55
2024/04/17 07:51:28;;;;;;;;;;;;;;;;;;5506089;26;5395;-54
2024/04/17 07:53:54;;;;;;;;;;;;;;;;;;5486116;25;5119;-55
2024/04/17 07:56:19;;;;;;;;;;;;;;;;;;5494564;26;1362;-55
2024/04/17 07:58:44;;;;;;;;;;;;;;;;;;5509363;26;5171;-56
2024/04/17 08:01:13;;;;;;;;;;;;;;;;;;5515436;26;4650;-54
2024/04/17 08:03:38;;;;;;;;;;;;;;;;;;5511944;26;5141;-55
2024/04/17 08:06:04;;;;;;;;;;;;;;;;;;5510630;26;5017;-53
2024/04/17 08:08:29;;;;;;;;;;;;;;;;;;5509967;26;1235;-54
2024/04/17 08:10:54;;;;;;;;;;;;;;;;;;5516700;26;5170;-53
2024/04/17 08:13:20;;;;;;;;;;;;;;;;;;5509635;26;4684;-54
2024/04/17 08:15:48;;;;;;;;;;;;;;;;;;5507541;26;5389;-53
2024/04/17 08:18:14;;;;;;;;;;;;;;;;;;5512026;26;5145;-55
2024/04/17 08:20:39;;;;;;;;;;;;;;;;;;5481754;26;2706;-52
2024/04/17 08:23:04;;;;;;;;;;;;;;;;;;5512357;26;4472;-55
2024/04/17 08:25:30;;;;;;;;;;;;;;;;;;5500836;26;5114;-54
2024/04/17 08:27:55;;;;;;;;;;;;;;;;;;5514570;26;5057;-54
2024/04/17 08:30:20;;;;;;;;;;;;;;;;;;5507273;26;5246;-55
2024/04/17 08:32:46;;;;;;;;;;;;;;;;;;5519842;26;1426;-55
2024/04/17 08:35:11;;;;;;;;;;;;;;;;;;5511966;26;5009;-55
2024/04/17 08:37:37;;;;;;;;;;;;;;;;;;5503550;26;5061;-55
2024/04/17 08:40:03;;;;;;;;;;;;;;;;;;5516163;25;4502;-55
2024/04/17 08:42:28;;;;;;;;;;;;;;;;;;5476371;26;5225;-55
2024/04/17 08:44:53;;;;;;;;;;;;;;;;;;5496487;26;5325;-54
2024/04/17 08:47:19;;;;;;;;;;;;;;;;;;5487232;26;1532;-56
2024/04/17 08:49:44;;;;;;;;;;;;;;;;;;5465980;26;5240;-54
2024/04/17 08:52:10;;;;;;;;;;;;;;;;;;5514302;26;5187;-54
2024/04/17 08:54:35;;;;;;;;;;;;;;;;;;5513591;26;5087;-53
2024/04/17 08:57:01;;;;;;;;;;;;;;;;;;5476927;26;5011;-53
2024/04/17 08:59:26;;;;;;;;;;;;;;;;;;5520289;26;1245;-53
2024/04/17 09:01:51;;;;;;;;;;;;;;;;;;5473178;26;4561;-55
2024/04/17 09:04:17;;;;;;;;;;;;;;;;;;5480136;26;5702;-54
2024/04/17 09:06:42;;;;;;;;;;;;;;;;;;5493956;26;5235;-54
2024/04/17 09:09:09;;;;;;;;;;;;;;;;;;5481693;26;5122;-53
2024/04/17 09:11:34;;;;;;;;;;;;;;;;;;5498329;26;1287;-54
2024/04/17 09:14:00;;;;;;;;;;;;;;;;;;5485033;26;4482;-55
2024/04/17 09:16:25;;;;;;;;;;;;;;;;;;5495378;26;4653;-55
2024/04/17 09:18:50;;;;;;;;;;;;;;;;;;5501162;26;5168;-54
2024/04/17 09:21:16;;;;;;;;;;;;;;;;;;5510752;26;5266;-54
2024/04/17 09:23:41;;;;;;;;;;;;;;;;;;5507961;25;2088;-53
2024/04/17 09:26:13;;;;;;;;;;;;;;;;;;5478751;26;4936;-55
2024/04/17 09:28:38;;;;;;;;;;;;;;;;;;5513202;26;5209;-54
2024/04/17 09:31:05;;;;;;;;;;;;;;;;;;5518732;25;5212;-53
2024/04/17 09:33:30;;;;;;;;;;;;;;;;;;5484657;26;5354;-55
2024/04/17 09:35:55;;;;;;;;;;;;;;;;;;5513766;26;5095;-54
2024/04/17 09:38:21;;;;;;;;;;;;;;;;;;5489897;26;1471;-54
2024/04/17 09:40:46;;;;;;;;;;;;;;;;;;5506542;26;5044;-53
2024/04/17 09:43:22;;;;;;;;;;;;;;;;;;5506758;26;5167;-55
2024/04/17 09:45:47;;;;;;;;;;;;;;;;;;5500900;26;4602;-50
2024/04/17 09:48:12;;;;;;;;;;;;;;;;;;5478725;26;5169;-53
2024/04/17 09:50:38;;;;;;;;;;;;;;;;;;5507979;26;1290;-54
2024/04/17 09:53:03;;;;;;;;;;;;;;;;;;5474764;26;5062;-54
2024/04/17 09:55:30;;;;;;;;;;;;;;;;;;5518030;26;5035;-55
2024/04/17 09:57:55;;;;;;;;;;;;;;;;;;5485695;26;5179;-55
2024/04/17 10:00:21;;;;;;;;;;;;;;;;;;5510094;26;5121;-54
2024/04/17 10:02:46;;;;;;;;;;;;;;;;;;5470874;26;1242;-55
2024/04/17 10:05:11;;;;;;;;;;;;;;;;;;5478284;26;4995;-54
2024/04/17 10:07:37;;;;;;;;;;;;;;;;;;5481988;26;5088;-54
2024/04/17 10:10:03;;;;;;;;;;;;;;;;;;5507371;25;5127;-53
2024/04/17 10:12:28;;;;;;;;;;;;;;;;;;5462216;26;4650;-54
2024/04/17 10:14:53;;;;;;;;;;;;;;;;;;5457014;26;5610;-55
2024/04/17 10:17:19;;;;;;;;;;;;;;;;;;5476496;26;1283;-54
2024/04/17 10:19:50;;;;;;;;;;;;;;;;;;5511025;26;5181;-54
2024/04/17 10:22:16;;;;;;;;;;;;;;;;;;5501903;25;5096;-52
2024/04/17 10:24:42;;;;;;;;;;;;;;;;;;5471228;26;5332;-54
2024/04/17 10:27:07;;;;;;;;;;;;;;;;;;5513910;26;4655;-52
2024/04/17 10:29:33;;;;;;;;;;;;;;;;;;5505542;26;1532;-54
2024/04/17 10:32:01;;;;;;;;;;;;;;;;;;5508709;26;5050;-55
2024/04/17 10:34:27;;;;;;;;;;;;;;;;;;5515764;26;4510;-57
2024/04/17 10:36:54;;;;;;;;;;;;;;;;;;5513987;26;5268;-54
2024/04/17 10:39:20;;;;;;;;;;;;;;;;;;5513992;26;5183;-53
2024/04/17 10:41:46;;;;;;;;;;;;;;;;;;5500596;26;1412;-55
2024/04/17 10:44:11;;;;;;;;;;;;;;;;;;5501990;26;5196;-53
2024/04/17 10:46:36;;;;;;;;;;;;;;;;;;5517056;26;5276;-55
2024/04/17 10:49:02;;;;;;;;;;;;;;;;;;5501431;26;5476;-55
2024/04/17 10:51:27;;;;;;;;;;;;;;;;;;5500158;26;5215;-55
2024/04/17 10:53:53;;;;;;;;;;;;;;;;;;5465077;26;5275;-53
2024/04/17 10:56:18;;;;;;;;;;;;;;;;;;5466353;26;1397;-54
2024/04/17 10:58:43;;;;;;;;;;;;;;;;;;5510738;26;5149;-53
2024/04/17 11:01:09;;;;;;;;;;;;;;;;;;5510223;26;5543;-54
2024/04/17 11:03:34;;;;;;;;;;;;;;;;;;5505400;26;5655;-54
2024/04/17 11:06:00;;;;;;;;;;;;;;;;;;5516625;26;5218;-54
2024/04/17 11:08:25;;;;;;;;;;;;;;;;;;5471871;26;3260;-55
2024/04/17 11:10:53;;;;;;;;;;;;;;;;;;5489962;26;5045;-54
2024/04/17 11:13:18;;;;;;;;;;;;;;;;;;5507611;26;4530;-53
2024/04/17 11:15:44;;;;;;;;;;;;;;;;;;5497592;26;5017;-54
2024/04/17 11:18:10;;;;;;;;;;;;;;;;;;5501165;26;5136;-53
2024/04/17 11:20:35;;;;;;;;;;;;;;;;;;5511450;26;1243;-54
2024/04/17 11:23:04;;;;;;;;;;;;;;;;;;5475354;26;5092;-55
2024/04/17 11:25:30;;;;;;;;;;;;;;;;;;5493115;26;5080;-53
2024/04/17 11:27:55;;;;;;;;;;;;;;;;;;5475193;26;5360;-54
2024/04/17 11:30:20;;;;;;;;;;;;;;;;;;5462139;26;4604;-54
2024/04/17 11:32:46;;;;;;;;;;;;;;;;;;5519192;26;1295;-55
2024/04/17 11:35:14;;;;;;;;;;;;;;;;;;5520770;26;5008;-56
2024/04/17 11:37:40;;;;;;;;;;;;;;;;;;5519809;26;5256;-56
2024/04/17 11:40:05;;;;;;;;;;;;;;;;;;5515955;26;5216;-54
2024/04/17 11:42:31;;;;;;;;;;;;;;;;;;5511554;26;4628;-55
2024/04/17 11:44:56;;;;;;;;;;;;;;;;;;5505265;26;5907;-54
2024/04/17 11:47:21;;;;;;;;;;;;;;;;;;5520663;26;1375;-54
2024/04/17 11:49:47;;;;;;;;;;;;;;;;;;5514427;26;5047;-54
2024/04/17 11:52:12;;;;;;;;;;;;;;;;;;5508867;26;5039;-54
2024/04/17 11:54:37;;;;;;;;;;;;;;;;;;5512791;26;5072;-53
2024/04/17 11:57:03;;;;;;;;;;;;;;;;;;5497995;26;5082;-54
2024/04/17 11:59:28;;;;;;;;;;;;;;;;;;5486831;26;1382;-54
2024/04/17 12:01:54;;;;;;;;;;;;;;;;;;5508666;26;4685;-53
2024/04/17 12:04:19;;;;;;;;;;;;;;;;;;5509622;26;5204;-52
2024/04/17 12:06:45;;;;;;;;;;;;;;;;;;5514078;26;5152;-54
2024/04/17 12:09:11;;;;;;;;;;;;;;;;;;5464351;26;5037;-54
2024/04/17 12:11:36;;;;;;;;;;;;;;;;;;5501467;26;1407;-54
2024/04/17 12:14:01;;;;;;;;;;;;;;;;;;5498186;26;5497;-53
2024/04/17 12:16:27;;;;;;;;;;;;;;;;;;5509256;26;5195;-55
2024/04/17 12:18:52;;;;;;;;;;;;;;;;;;5504448;26;5072;-54
2024/04/17 12:21:17;;;;;;;;;;;;;;;;;;5504061;26;5048;-55
2024/04/17 12:23:44;;;;;;;;;;;;;;;;;;5510657;25;2075;-54
2024/04/17 12:28:53;;;;;;;;;;;;;;;;;;5509747;26;4553;-52
2024/04/17 12:31:19;;;;;;;;;;;;;;;;;;5509969;26;5692;-53
2024/04/17 12:33:44;;;;;;;;;;;;;;;;;;5507065;26;5106;-54
2024/04/17 12:36:10;;;;;;;;;;;;;;;;;;5516478;26;4735;-55
2024/04/17 12:38:35;;;;;;;;;;;;;;;;;;5513148;26;1355;-53
2024/04/17 12:41:00;;;;;;;;;;;;;;;;;;5510124;26;5153;-54
2024/04/17 12:43:26;;;;;;;;;;;;;;;;;;5508215;26;4511;-55
2024/04/17 12:45:51;;;;;;;;;;;;;;;;;;5476199;26;5094;-56
2024/04/17 12:48:16;;;;;;;;;;;;;;;;;;5498480;26;4503;-54
2024/04/17 12:50:42;;;;;;;;;;;;;;;;;;5513035;26;1354;-54
2024/04/17 12:53:08;;;;;;;;;;;;;;;;;;5469091;26;5032;-54
2024/04/17 12:55:34;;;;;;;;;;;;;;;;;;5507153;26;4638;-55
2024/04/17 12:57:59;;;;;;;;;;;;;;;;;;5505887;26;5104;-54
2024/04/17 13:00:24;;;;;;;;;;;;;;;;;;5507997;26;5267;-53
2024/04/17 13:02:50;;;;;;;;;;;;;;;;;;5502226;26;5189;-54
2024/04/17 13:05:16;;;;;;;;;;;;;;;;;;5507430;26;1829;-53
2024/04/17 13:07:41;;;;;;;;;;;;;;;;;;5500884;26;4611;-54
2024/04/17 13:10:08;;;;;;;;;;;;;;;;;;5505356;26;5078;-54
2024/04/17 13:12:34;;;;;;;;;;;;;;;;;;5506252;26;4666;-53
2024/04/17 13:14:59;;;;;;;;;;;;;;;;;;5499674;26;5127;-54
2024/04/17 13:17:25;;;;;;;;;;;;;;;;;;5511958;26;1175;-54
2024/04/17 13:19:50;;;;;;;;;;;;;;;;;;5506113;26;5134;-55
2024/04/17 13:22:16;;;;;;;;;;;;;;;;;;5490505;25;5156;-54
2024/04/17 13:24:41;;;;;;;;;;;;;;;;;;5431399;26;5719;-55
2024/04/17 13:27:08;;;;;;;;;;;;;;;;;;5454429;26;4564;-55
2024/04/17 13:29:33;;;;;;;;;;;;;;;;;;5462594;26;1421;-53
2024/04/17 13:31:59;;;;;;;;;;;;;;;;;;5451953;26;5325;-54
2024/04/17 13:34:24;;;;;;;;;;;;;;;;;;5466812;26;5441;-55
2024/04/17 13:36:50;;;;;;;;;;;;;;;;;;5455150;26;4548;-54
2024/04/17 13:39:15;;;;;;;;;;;;;;;;;;5472263;26;4530;-53
2024/04/17 13:41:40;;;;;;;;;;;;;;;;;;5457999;26;1551;-55
2024/04/17 13:44:06;;;;;;;;;;;;;;;;;;5455190;26;5622;-55
2024/04/17 13:46:31;;;;;;;;;;;;;;;;;;5462331;26;5063;-55
2024/04/17 13:48:56;;;;;;;;;;;;;;;;;;5466330;26;5087;-54
2024/04/17 13:51:22;;;;;;;;;;;;;;;;;;5448523;26;4758;-52
2024/04/17 13:53:53;;;;;;;;;;;;;;;;;;5455751;26;1994;-55
2024/04/17 13:56:19;;;;;;;;;;;;;;;;;;5451181;26;5281;-55
2024/04/17 13:58:44;;;;;;;;;;;;;;;;;;5464444;26;5497;-55
2024/04/17 14:01:10;;;;;;;;;;;;;;;;;;5464301;26;5106;-54
2024/04/17 14:03:35;;;;;;;;;;;;;;;;;;5464350;26;5170;-54
2024/04/17 14:06:00;;;;;;;;;;;;;;;;;;5473149;26;5288;-54
2024/04/17 14:08:26;;;;;;;;;;;;;;;;;;5464928;26;1316;-54
2024/04/17 14:10:56;;;;;;;;;;;;;;;;;;5472404;26;4979;-55
2024/04/17 14:13:25;;;;;;;;;;;;;;;;;;5462530;26;4540;-54
2024/04/17 14:15:50;;;;;;;;;;;;;;;;;;5449844;26;5112;-54
2024/04/17 14:18:16;;;;;;;;;;;;;;;;;;5458387;26;5162;-52
2024/04/17 14:20:41;;;;;;;;;;;;;;;;;;5449427;26;1284;-53
2024/04/17 14:23:07;;;;;;;;;;;;;;;;;;5497384;25;4444;-54
2024/04/17 14:25:32;;;;;;;;;;;;;;;;;;5501331;26;5286;-55
2024/04/17 14:27:58;;;;;;;;;;;;;;;;;;5498008;26;5194;-53
2024/04/17 14:30:24;;;;;;;;;;;;;;;;;;5516143;26;5156;-53
2024/04/17 14:32:49;;;;;;;;;;;;;;;;;;5504252;26;5134;-53
2024/04/17 14:35:14;;;;;;;;;;;;;;;;;;5510965;26;1229;-54
2024/04/17 14:37:40;;;;;;;;;;;;;;;;;;5506029;25;4520;-53
2024/04/17 14:40:05;;;;;;;;;;;;;;;;;;5515753;26;5081;-55
2024/04/17 14:42:31;;;;;;;;;;;;;;;;;;5507096;26;5098;-54
2024/04/17 14:45:00;;;;;;;;;;;;;;;;;;5499943;26;5202;-55
2024/04/17 14:47:25;;;;;;;;;;;;;;;;;;5517985;26;1416;-54
2024/04/17 14:49:51;;;;;;;;;;;;;;;;;;5504788;26;5009;-54
2024/04/17 14:52:16;;;;;;;;;;;;;;;;;;5507687;26;5175;-54
2024/04/17 14:54:42;;;;;;;;;;;;;;;;;;5512360;26;5294;-53
2024/04/17 14:57:07;;;;;;;;;;;;;;;;;;5505578;26;5072;-53
2024/04/17 14:59:32;;;;;;;;;;;;;;;;;;5500457;26;1343;-55
2024/04/17 15:01:58;;;;;;;;;;;;;;;;;;5499452;26;5023;-56
2024/04/17 15:04:23;;;;;;;;;;;;;;;;;;5503157;26;4989;-55
2024/04/17 15:06:50;;;;;;;;;;;;;;;;;;5515001;26;5228;-53
2024/04/17 15:09:16;;;;;;;;;;;;;;;;;;5513601;26;5104;-54
2024/04/17 15:11:42;;;;;;;;;;;;;;;;;;5501168;26;1404;-53
2024/04/17 15:14:07;;;;;;;;;;;;;;;;;;5503709;26;4616;-55
2024/04/17 15:16:32;;;;;;;;;;;;;;;;;;5510958;26;5245;-54
2024/04/17 15:18:58;;;;;;;;;;;;;;;;;;5512678;26;5259;-55
2024/04/17 15:21:23;;;;;;;;;;;;;;;;;;5505727;25;5262;-53
2024/04/17 15:23:49;;;;;;;;;;;;;;;;;;5513852;26;5346;-52
2024/04/17 15:26:17;;;;;;;;;;;;;;;;;;5501470;26;1864;-55
2024/04/17 15:28:42;;;;;;;;;;;;;;;;;;5470972;26;5057;-55
2024/04/17 15:31:10;;;;;;;;;;;;;;;;;;5507261;26;5099;-55
2024/04/17 15:33:36;;;;;;;;;;;;;;;;;;5471647;26;5075;-53
2024/04/17 15:36:02;;;;;;;;;;;;;;;;;;5507126;26;5296;-53
2024/04/17 15:38:28;;;;;;;;;;;;;;;;;;5521541;25;1389;-56
2024/04/17 15:41:14;;;;;;;;;;;;;;;;;;5479259;26;5123;-55
2024/04/17 15:43:43;;;;;;;;;;;;;;;;;;5518773;26;5123;-52
2024/04/17 15:46:08;;;;;;;;;;;;;;;;;;5472286;26;5308;-55
2024/04/17 15:48:34;;;;;;;;;;;;;;;;;;5472885;26;4596;-56
2024/04/17 15:51:04;;;;;;;;;;;;;;;;;;5513300;26;4629;-54
2024/04/17 15:53:29;;;;;;;;;;;;;;;;;;5511093;26;1744;-54
2024/04/17 15:55:54;;;;;;;;;;;;;;;;;;5515998;26;5062;-52
2024/04/17 15:58:20;;;;;;;;;;;;;;;;;;5503576;26;5226;-55
2024/04/17 16:00:45;;;;;;;;;;;;;;;;;;5494821;26;5066;-54
2024/04/17 16:03:11;;;;;;;;;;;;;;;;;;5515149;26;5119;-51
2024/04/17 16:05:36;;;;;;;;;;;;;;;;;;5505314;26;1861;-53
2024/04/17 16:08:01;;;;;;;;;;;;;;;;;;5503906;26;5098;-54
2024/04/17 16:10:27;;;;;;;;;;;;;;;;;;5512550;26;4696;-55
2024/04/17 16:12:52;;;;;;;;;;;;;;;;;;5519937;26;5129;-54
2024/04/17 16:15:18;;;;;;;;;;;;;;;;;;5511319;26;5198;-55
2024/04/17 16:17:43;;;;;;;;;;;;;;;;;;5502565;25;1577;-54
2024/04/17 16:20:08;;;;;;;;;;;;;;;;;;5501013;25;5014;-56
2024/04/17 16:22:34;;;;;;;;;;;;;;;;;;5516720;25;4693;-54
2024/04/17 16:24:59;;;;;;;;;;;;;;;;;;5509854;26;5169;-56
2024/04/17 16:27:25;;;;;;;;;;;;;;;;;;5520147;25;5708;-55
2024/04/17 16:29:52;;;;;;;;;;;;;;;;;;5504619;25;6105;-57
2024/04/17 16:32:18;;;;;;;;;;;;;;;;;;5505061;25;1351;-53
2024/04/17 16:34:45;;;;;;;;;;;;;;;;;;5460576;26;5117;-55
2024/04/17 16:37:10;;;;;;;;;;;;;;;;;;5504282;25;5350;-58
2024/04/17 16:39:36;;;;;;;;;;;;;;;;;;5477933;26;4717;-57
2024/04/17 16:42:01;;;;;;;;;;;;;;;;;;5529214;25;4669;-58
2024/04/17 16:44:27;;;;;;;;;;;;;;;;;;5478951;26;1453;-58
2024/04/17 16:46:53;;;;;;;;;;;;;;;;;;5514324;26;5256;-58
2024/04/17 16:49:18;;;;;;;;;;;;;;;;;;5504623;25;5223;-58
2024/04/17 16:51:43;;;;;;;;;;;;;;;;;;5513724;26;5075;-57
2024/04/17 16:54:09;;;;;;;;;;;;;;;;;;5502594;25;4961;-58